Time;durP1;ratioP1;P1;durP2;ratioP2;P2;SDS_P1;SDS_P2;PMS_P1;PMS_P2;Temp;Humidity;BMP_temperature;BMP_pressure;BME280_temperature;BME280_humidity;BME280_pressure;Samples;Min_cycle;Max_cycle;Signal;HPM_P1;HPM_P2
2022/09/16 00:01:14;;;;;;;0.93;0.30;;;;;;;-142.37;100.00;59669.53;4956462;28;20041;-69
2022/09/16 00:03:40;;;;;;;1.33;0.45;;;;;;;-142.37;100.00;59669.53;4957056;28;20118;-69
2022/09/16 00:06:15;;;;;;;3.53;0.60;;;;;;;-142.37;100.00;59669.53;4957169;28;20398;-68
2022/09/16 00:08:42;;;;;;;3.25;0.77;;;;;;;-142.37;100.00;59669.53;4956975;28;20039;-71
2022/09/16 00:11:08;;;;;;;1.45;0.60;;;;;;;-142.37;100.00;59669.53;4956967;28;20031;-71
2022/09/16 00:13:33;;;;;;;3.65;0.52;;;;;;;-142.37;100.00;59669.53;4957230;28;20411;-69
2022/09/16 00:15:59;;;;;;;1.35;0.40;;;;;;;-142.37;100.00;59669.53;4974418;28;20113;-70
2022/09/16 00:18:24;;;;;;;1.85;0.57;;;;;;;-142.37;100.00;59669.53;4957132;28;20038;-70
2022/09/16 00:20:53;;;;;;;1.50;0.75;;;;;;;-142.37;100.00;59669.53;4956947;28;20122;-71
2022/09/16 00:23:19;;;;;;;3.50;0.75;;;;;;;-142.37;100.00;59669.53;4974147;28;20026;-69
2022/09/16 00:25:53;;;;;;;2.47;0.80;;;;;;;-142.37;100.00;59669.53;4974341;28;20039;-71
2022/09/16 00:28:20;;;;;;;1.67;0.70;;;;;;;-142.37;100.00;59669.53;4956705;28;20419;-71
2022/09/16 00:30:47;;;;;;;0.90;0.65;;;;;;;-142.37;100.00;59669.53;4956668;28;20063;-71
2022/09/16 00:33:13;;;;;;;4.00;0.60;;;;;;;-142.37;100.00;59669.53;4956331;28;20039;-69
2022/09/16 00:35:39;;;;;;;0.65;0.50;;;;;;;-142.37;100.00;59669.53;4956184;28;20041;-71
2022/09/16 00:38:05;;;;;;;0.95;0.70;;;;;;;-142.37;100.00;59669.53;4974079;28;20027;-70
2022/09/16 00:40:30;;;;;;;1.35;0.77;;;;;;;-142.37;100.00;59669.53;4956708;28;20027;-69
2022/09/16 00:42:58;;;;;;;1.90;0.57;;;;;;;-142.37;100.00;59669.53;4974023;28;20074;-72
2022/09/16 00:45:30;;;;;;;0.80;0.38;;;;;;;-142.37;100.00;59669.53;4973896;28;20034;-69
2022/09/16 00:48:06;;;;;;;1.35;0.40;;;;;;;-142.37;100.00;59669.53;4956319;28;20034;-70
2022/09/16 00:50:47;;;;;;;0.95;0.65;;;;;;;-142.37;100.00;59669.53;4973848;28;20035;-69
2022/09/16 00:53:23;;;;;;;1.10;0.65;;;;;;;-142.37;100.00;59669.53;4956144;28;20038;-69
2022/09/16 00:55:52;;;;;;;1.48;0.75;;;;;;;-142.37;100.00;59669.53;4973268;28;20395;-70
2022/09/16 00:58:30;;;;;;;2.00;0.88;;;;;;;-142.37;100.00;59669.53;4956238;28;20089;-69
2022/09/16 01:00:55;;;;;;;1.50;0.60;;;;;;;-142.37;100.00;59669.53;4972305;28;20034;-69
2022/09/16 01:03:22;;;;;;;0.80;0.73;;;;;;;-142.37;100.00;59669.53;4973521;28;20419;-70
2022/09/16 01:05:49;;;;;;;0.75;0.70;;;;;;;-142.37;100.00;59669.53;4973311;28;20035;-68
2022/09/16 01:08:14;;;;;;;2.47;0.52;;;;;;;-142.37;100.00;59669.53;4971916;28;20492;-68
2022/09/16 01:10:41;;;;;;;0.80;0.80;;;;;;;-142.37;100.00;59669.53;4973212;28;20162;-67
2022/09/16 01:13:11;;;;;;;1.60;0.57;;;;;;;-142.37;100.00;59669.53;4972739;28;20034;-70
2022/09/16 01:16:05;;;;;;;2.55;0.82;;;;;;;-142.37;100.00;59669.53;4973009;28;20042;-70
2022/09/16 01:18:53;;;;;;;1.50;0.77;;;;;;;-142.37;100.00;59669.53;4973243;28;20030;-69
2022/09/16 01:21:40;;;;;;;0.85;0.70;;;;;;;-142.37;100.00;59669.53;4926846;28;20447;-69
2022/09/16 01:24:18;;;;;;;0.70;0.70;;;;;;;-142.37;100.00;59669.53;4971712;28;20443;-67
2022/09/16 01:27:34;;;;;;;1.55;0.85;;;;;;;-142.37;100.00;59669.53;4973593;28;20105;-67
2022/09/16 01:30:17;;;;;;;1.65;1.23;;;;;;;-142.37;100.00;59669.53;4931170;28;20043;-67
2022/09/16 01:32:42;;;;;;;1.75;1.30;;;;;;;-142.37;100.00;59669.53;4955535;28;20050;-67
2022/09/16 01:35:11;;;;;;;1.45;1.10;;;;;;;-142.37;100.00;59669.53;4955632;28;20078;-68
2022/09/16 01:38:10;;;;;;;1.33;1.23;;;;;;;-142.37;100.00;59669.53;4973066;28;20029;-68
2022/09/16 01:40:56;;;;;;;1.13;1.10;;;;;;;-142.37;100.00;59669.53;4971941;28;20027;-67
2022/09/16 01:43:34;;;;;;;1.75;1.65;;;;;;;-142.37;100.00;59669.53;4955808;28;20039;-68
2022/09/16 01:46:20;;;;;;;1.85;1.75;;;;;;;-142.37;100.00;59669.53;4972835;28;20031;-68
2022/09/16 01:48:55;;;;;;;2.25;1.40;;;;;;;-142.37;100.00;59669.53;4971654;28;20042;-68
2022/09/16 01:51:24;;;;;;;2.30;1.95;;;;;;;-142.37;100.00;59669.53;4972977;28;20030;-68
2022/09/16 01:54:06;;;;;;;1.90;1.80;;;;;;;-142.37;100.00;59669.53;4955514;28;20121;-69
2022/09/16 01:56:43;;;;;;;1.75;1.65;;;;;;;-142.37;100.00;59669.53;4955512;28;20177;-69
2022/09/16 01:59:17;;;;;;;1.70;1.60;;;;;;;-142.37;100.00;59669.53;4955408;28;20041;-68
2022/09/16 02:01:42;;;;;;;2.67;1.80;;;;;;;-142.37;100.00;59669.53;4972866;28;20062;-67
2022/09/16 02:04:18;;;;;;;2.30;1.55;;;;;;;-142.37;100.00;59669.53;4971511;28;20035;-67
2022/09/16 02:06:48;;;;;;;2.20;1.40;;;;;;;-142.37;100.00;59669.53;4955369;28;20132;-67
2022/09/16 02:09:21;;;;;;;1.58;1.40;;;;;;;-142.37;100.00;59669.53;4955217;28;20037;-69
2022/09/16 02:11:49;;;;;;;1.63;1.52;;;;;;;-142.37;100.00;59669.53;4973020;28;20115;-69
2022/09/16 02:14:23;;;;;;;1.52;1.42;;;;;;;-142.37;100.00;59669.53;4955448;28;20038;-68
2022/09/16 02:16:58;;;;;;;2.15;1.42;;;;;;;-142.37;100.00;59669.53;4972604;28;20037;-68
2022/09/16 02:19:51;;;;;;;1.60;1.50;;;;;;;-142.37;100.00;59669.53;4972711;28;20399;-67
2022/09/16 02:22:29;;;;;;;3.40;2.08;;;;;;;-142.37;100.00;59669.53;4972049;28;20487;-67
2022/09/16 02:24:56;;;;;;;1.58;1.48;;;;;;;-142.37;100.00;59669.53;4957733;28;20030;-67
2022/09/16 02:27:22;;;;;;;1.88;1.63;;;;;;;-142.37;100.00;59669.53;4959083;28;20081;-66
2022/09/16 02:29:54;;;;;;;1.90;1.80;;;;;;;-142.37;100.00;59669.53;4976790;28;20377;-68
2022/09/16 02:32:22;;;;;;;2.72;2.00;;;;;;;-142.37;100.00;59669.53;4976242;28;20033;-67
2022/09/16 02:34:51;;;;;;;2.55;2.15;;;;;;;-142.37;100.00;59669.53;4958729;28;20139;-67
2022/09/16 02:37:28;;;;;;;1.92;1.83;;;;;;;-142.37;100.00;59669.53;4976145;28;20027;-67
2022/09/16 02:40:01;;;;;;;2.15;1.90;;;;;;;-142.37;100.00;59669.53;4958724;28;20102;-66
2022/09/16 02:42:28;;;;;;;2.47;1.85;;;;;;;-142.37;100.00;59669.53;4975920;28;20033;-67
2022/09/16 02:44:54;;;;;;;2.08;1.88;;;;;;;-142.37;100.00;59669.53;4975883;28;20037;-67
2022/09/16 02:47:38;;;;;;;1.85;1.75;;;;;;;-142.37;100.00;59669.53;4975742;28;20054;-65
2022/09/16 02:50:23;;;;;;;1.92;1.80;;;;;;;-142.37;100.00;59669.53;4958575;28;20031;-66
2022/09/16 02:53:03;;;;;;;2.07;1.60;;;;;;;-142.37;100.00;59669.53;4975742;28;20023;-66
2022/09/16 02:55:44;;;;;;;2.03;1.83;;;;;;;-142.37;100.00;59669.53;4958547;28;20051;-67
2022/09/16 02:58:10;;;;;;;1.50;1.40;;;;;;;-142.37;100.00;59669.53;4975776;28;20038;-67
2022/09/16 03:00:40;;;;;;;4.15;2.17;;;;;;;-142.37;100.00;59669.53;4958409;28;20034;-67
2022/09/16 03:03:06;;;;;;;2.90;1.77;;;;;;;-142.37;100.00;59669.53;4958120;28;20031;-67
2022/09/16 03:05:31;;;;;;;1.90;1.70;;;;;;;-142.37;100.00;59669.53;4975272;28;20558;-66
2022/09/16 03:08:00;;;;;;;2.13;1.83;;;;;;;-142.37;100.00;59669.53;4975757;28;20085;-66
2022/09/16 03:10:34;;;;;;;2.13;1.77;;;;;;;-142.37;100.00;59669.53;4975513;28;20030;-66
2022/09/16 03:13:14;;;;;;;3.25;2.20;;;;;;;-142.37;100.00;59669.53;4975296;28;20038;-67
2022/09/16 03:15:47;;;;;;;3.17;2.65;;;;;;;-142.37;100.00;59669.53;4957879;28;20077;-66
2022/09/16 03:18:18;;;;;;;4.25;3.20;;;;;;;-142.37;100.00;59669.53;4957803;28;20490;-66
2022/09/16 03:20:58;;;;;;;4.32;2.72;;;;;;;-142.37;100.00;59669.53;4974232;28;20031;-65
2022/09/16 03:23:49;;;;;;;5.00;2.47;;;;;;;-142.37;100.00;59669.53;4973876;28;20047;-64
2022/09/16 03:26:34;;;;;;;2.60;2.30;;;;;;;-142.37;100.00;59669.53;4975272;28;20038;-66
2022/09/16 03:29:27;;;;;;;2.80;2.60;;;;;;;-142.37;100.00;59669.53;4957761;28;20480;-65
2022/09/16 03:32:02;;;;;;;2.30;2.10;;;;;;;-142.37;100.00;59669.53;4957918;28;20097;-66
2022/09/16 03:34:34;;;;;;;5.50;2.80;;;;;;;-142.37;100.00;59669.53;4974799;28;20061;-68
2022/09/16 03:37:07;;;;;;;3.85;2.88;;;;;;;-142.37;100.00;59669.53;4957192;28;20452;-65
2022/09/16 03:39:34;;;;;;;5.60;2.97;;;;;;;-142.37;100.00;59669.53;4975127;28;20109;-66
2022/09/16 03:42:03;;;;;;;3.83;3.28;;;;;;;-142.37;100.00;59669.53;4975036;28;20125;-67
2022/09/16 03:44:38;;;;;;;6.55;4.40;;;;;;;-142.37;100.00;59669.53;4957332;28;20031;-65
2022/09/16 03:47:05;;;;;;;4.57;3.97;;;;;;;-142.37;100.00;59669.53;4957137;28;20538;-69
2022/09/16 03:49:31;;;;;;;5.20;4.10;;;;;;;-142.37;100.00;59669.53;4956913;28;20062;-66
2022/09/16 03:51:57;;;;;;;5.78;4.90;;;;;;;-142.37;100.00;59669.53;4957485;28;20459;-66
2022/09/16 03:54:23;;;;;;;6.13;5.38;;;;;;;-142.37;100.00;59669.53;4974494;28;20027;-66
2022/09/16 03:56:49;;;;;;;7.00;5.13;;;;;;;-142.37;100.00;59669.53;4957165;28;20105;-66
2022/09/16 03:59:14;;;;;;;7.43;4.43;;;;;;;-142.37;100.00;59669.53;4956933;28;20039;-67
2022/09/16 04:01:40;;;;;;;5.90;4.65;;;;;;;-142.37;100.00;59669.53;4974391;28;20464;-69
2022/09/16 04:04:06;;;;;;;7.18;4.55;;;;;;;-142.37;100.00;59669.53;4974716;28;20035;-67
2022/09/16 04:06:31;;;;;;;6.32;4.60;;;;;;;-142.37;100.00;59669.53;4957027;28;20114;-66
2022/09/16 04:08:59;;;;;;;7.57;5.22;;;;;;;-142.37;100.00;59669.53;4956739;28;20067;-68
2022/09/16 04:11:28;;;;;;;5.25;4.75;;;;;;;-142.37;100.00;59669.53;4957069;28;20396;-68
2022/09/16 04:13:54;;;;;;;6.70;4.88;;;;;;;-142.37;100.00;59669.53;4957096;28;20066;-68
2022/09/16 04:16:21;;;;;;;5.55;4.63;;;;;;;-142.37;100.00;59669.53;4974109;28;20077;-68
2022/09/16 04:18:47;;;;;;;7.50;4.55;;;;;;;-142.37;100.00;59669.53;4974611;28;20046;-66
2022/09/16 04:21:13;;;;;;;6.82;4.53;;;;;;;-142.37;100.00;59669.53;4973927;28;20034;-67
2022/09/16 04:23:39;;;;;;;5.60;4.28;;;;;;;-142.37;100.00;59669.53;4956878;28;20031;-67
2022/09/16 04:26:05;;;;;;;4.85;4.28;;;;;;;-142.37;100.00;59669.53;4956906;28;20035;-67
2022/09/16 04:28:35;;;;;;;6.30;4.30;;;;;;;-142.37;100.00;59669.53;4972553;28;20031;-67
2022/09/16 04:31:03;;;;;;;8.10;4.32;;;;;;;-142.37;100.00;59669.53;4956137;28;20121;-68
2022/09/16 04:33:30;;;;;;;4.38;3.75;;;;;;;-142.37;100.00;59669.53;4955888;28;20125;-67
2022/09/16 04:36:07;;;;;;;5.03;4.10;;;;;;;-142.37;100.00;59669.53;4956272;28;20061;-67
2022/09/16 04:38:34;;;;;;;5.20;4.70;;;;;;;-142.37;100.00;59669.53;4956161;28;20038;-68
2022/09/16 04:41:05;;;;;;;4.90;4.10;;;;;;;-142.37;100.00;59669.53;4955822;28;20403;-68
2022/09/16 04:43:30;;;;;;;7.15;4.93;;;;;;;-142.37;100.00;59669.53;4956525;28;20027;-67
2022/09/16 04:45:56;;;;;;;5.40;4.88;;;;;;;-142.37;100.00;59669.53;4956895;28;20041;-68
2022/09/16 04:48:22;;;;;;;5.30;4.80;;;;;;;-142.37;100.00;59669.53;4956016;28;20042;-68
2022/09/16 04:50:48;;;;;;;7.22;5.15;;;;;;;-142.37;100.00;59669.53;4973913;28;20031;-70
2022/09/16 04:53:14;;;;;;;7.72;5.38;;;;;;;-142.37;100.00;59669.53;4955857;28;20165;-68
2022/09/16 04:55:39;;;;;;;7.30;5.03;;;;;;;-142.37;100.00;59669.53;4955846;28;20471;-70
2022/09/16 04:58:05;;;;;;;6.55;5.45;;;;;;;-142.37;100.00;59669.53;4973216;28;20031;-67
2022/09/16 05:00:30;;;;;;;6.40;5.20;;;;;;;-142.37;100.00;59669.53;4956345;28;20035;-68
2022/09/16 05:02:56;;;;;;;9.70;5.68;;;;;;;-142.37;100.00;59669.53;4955952;28;20034;-71
2022/09/16 05:05:22;;;;;;;6.40;5.32;;;;;;;-142.37;100.00;59669.53;4956035;28;20041;-69
2022/09/16 05:07:48;;;;;;;9.90;5.60;;;;;;;-142.37;100.00;59669.53;4973471;28;20035;-68
2022/09/16 05:10:14;;;;;;;6.93;5.30;;;;;;;-142.37;100.00;59669.53;4972858;28;20039;-68
2022/09/16 05:12:39;;;;;;;6.47;5.18;;;;;;;-142.37;100.00;59669.53;4955513;28;20027;-68
2022/09/16 05:15:06;;;;;;;10.15;6.22;;;;;;;-142.37;100.00;59669.53;4955299;28;20026;-70
2022/09/16 05:17:32;;;;;;;6.68;5.95;;;;;;;-142.37;100.00;59669.53;4972651;28;20030;-69
2022/09/16 05:19:58;;;;;;;7.22;5.78;;;;;;;-142.37;100.00;59669.53;4955336;28;20400;-67
2022/09/16 05:22:23;;;;;;;7.38;6.13;;;;;;;-142.37;100.00;59669.53;4955469;28;20031;-68
2022/09/16 05:24:49;;;;;;;9.27;5.93;;;;;;;-142.37;100.00;59669.53;4972404;28;20089;-69
2022/09/16 05:27:16;;;;;;;6.85;5.50;;;;;;;-142.37;100.00;59669.53;4972688;28;20057;-71
2022/09/16 05:29:41;;;;;;;7.07;5.60;;;;;;;-142.37;100.00;59669.53;4955502;28;20049;-69
2022/09/16 05:32:07;;;;;;;6.32;4.63;;;;;;;-142.37;100.00;59669.53;4972573;28;20030;-69
2022/09/16 05:34:34;;;;;;;5.93;4.70;;;;;;;-142.37;100.00;59669.53;4955224;28;20059;-73
2022/09/16 05:37:00;;;;;;;5.95;3.90;;;;;;;-142.37;100.00;59669.53;4972013;28;20031;-68
2022/09/16 05:39:26;;;;;;;4.82;4.32;;;;;;;-142.37;100.00;59669.53;4972723;28;20030;-69
2022/09/16 05:41:55;;;;;;;4.95;3.78;;;;;;;-142.37;100.00;59669.53;4972224;28;20121;-69
2022/09/16 05:44:21;;;;;;;6.43;5.57;;;;;;;-142.37;100.00;59669.53;4955083;28;20403;-70
2022/09/16 05:46:46;;;;;;;5.22;3.50;;;;;;;-142.37;100.00;59669.53;4971952;28;20031;-68
2022/09/16 05:49:19;;;;;;;5.88;4.15;;;;;;;-142.37;100.00;59669.53;4954579;28;20035;-69
2022/09/16 05:51:45;;;;;;;4.47;3.25;;;;;;;-142.37;100.00;59669.53;4972848;28;20022;-70
2022/09/16 05:54:11;;;;;;;5.55;3.20;;;;;;;-142.37;100.00;59669.53;4954519;28;20433;-69
2022/09/16 05:56:37;;;;;;;5.13;3.00;;;;;;;-142.37;100.00;59669.53;4972129;28;20095;-70
2022/09/16 05:59:03;;;;;;;3.90;2.42;;;;;;;-142.37;100.00;59669.53;4955745;28;20031;-69
2022/09/16 06:01:34;;;;;;;3.08;2.75;;;;;;;-142.37;100.00;59669.53;4976645;28;20472;-70
2022/09/16 06:04:01;;;;;;;3.85;2.65;;;;;;;-142.37;100.00;59669.53;4975054;28;20023;-70
2022/09/16 06:06:33;;;;;;;3.75;2.63;;;;;;;-142.37;100.00;59669.53;4960255;28;20117;-70
2022/09/16 06:09:03;;;;;;;4.85;3.22;;;;;;;-142.37;100.00;59669.53;4976187;28;20086;-70
2022/09/16 06:11:29;;;;;;;5.75;3.00;;;;;;;-142.37;100.00;59669.53;4958305;28;20130;-70
2022/09/16 06:13:58;;;;;;;5.60;2.65;;;;;;;-142.37;100.00;59669.53;4957804;28;20122;-70
2022/09/16 06:16:25;;;;;;;5.05;2.20;;;;;;;-142.37;100.00;59669.53;4975774;28;20053;-69
2022/09/16 06:18:56;;;;;;;5.25;2.40;;;;;;;-142.37;100.00;59669.53;4958183;28;20031;-69
2022/09/16 06:21:22;;;;;;;4.05;1.95;;;;;;;-142.37;100.00;59669.53;4957867;28;20027;-73
2022/09/16 06:23:49;;;;;;;4.45;1.65;;;;;;;-142.37;100.00;59669.53;4958074;28;20034;-69
2022/09/16 06:26:21;;;;;;;2.13;1.92;;;;;;;-142.37;100.00;59669.53;4957771;28;20106;-70
2022/09/16 06:28:47;;;;;;;2.33;1.92;;;;;;;-142.37;100.00;59669.53;4958005;28;20037;-70
2022/09/16 06:31:19;;;;;;;7.22;4.43;;;;;;;-142.37;100.00;59669.53;4975515;28;20505;-70
2022/09/16 06:33:45;;;;;;;3.40;1.80;;;;;;;-142.37;100.00;59669.53;4975096;28;20051;-70
2022/09/16 06:36:14;;;;;;;1.88;1.58;;;;;;;-142.37;100.00;59669.53;4974287;28;20042;-71
2022/09/16 06:38:40;;;;;;;2.28;1.40;;;;;;;-142.37;100.00;59669.53;4974854;28;20034;-68
2022/09/16 06:41:09;;;;;;;1.63;1.52;;;;;;;-142.37;100.00;59669.53;4975437;28;20129;-68
2022/09/16 06:43:35;;;;;;;2.63;1.42;;;;;;;-142.37;100.00;59669.53;4975244;28;20035;-70
2022/09/16 06:46:12;;;;;;;3.90;1.70;;;;;;;-142.37;100.00;59669.53;4974816;28;20026;-71
2022/09/16 06:48:39;;;;;;;2.38;1.67;;;;;;;-142.37;100.00;59669.53;4957155;28;20086;-69
2022/09/16 06:51:16;;;;;;;3.95;1.50;;;;;;;-142.37;100.00;59669.53;4975239;28;20395;-70
2022/09/16 06:53:43;;;;;;;2.45;1.40;;;;;;;-142.37;100.00;59669.53;4974578;28;20510;-71
2022/09/16 06:56:15;;;;;;;3.88;2.00;;;;;;;-142.37;100.00;59669.53;4974570;28;20026;-71
2022/09/16 06:58:42;;;;;;;4.13;2.40;;;;;;;-142.37;100.00;59669.53;4957487;28;20037;-70
2022/09/16 07:01:19;;;;;;;3.17;2.53;;;;;;;-142.37;100.00;59669.53;4957227;28;20038;-71
2022/09/16 07:03:48;;;;;;;18.65;12.60;;;;;;;-142.37;100.00;59669.53;4957435;28;20131;-70
2022/09/16 07:06:14;;;;;;;2.47;1.23;;;;;;;-142.37;100.00;59669.53;4974309;28;20023;-71
2022/09/16 07:08:41;;;;;;;1.65;1.08;;;;;;;-142.37;100.00;59669.53;4974859;28;20031;-71
2022/09/16 07:11:09;;;;;;;1.73;1.10;;;;;;;-142.37;100.00;59669.53;4974267;28;20318;-69
2022/09/16 07:13:34;;;;;;;2.58;1.52;;;;;;;-142.37;100.00;59669.53;4974648;28;20033;-69
2022/09/16 07:16:12;;;;;;;2.33;1.30;;;;;;;-142.37;100.00;59669.53;4957709;28;20035;-69
2022/09/16 07:18:38;;;;;;;4.40;0.90;;;;;;;-142.37;100.00;59669.53;4957376;28;20476;-70
2022/09/16 07:21:13;;;;;;;2.50;1.27;;;;;;;-142.37;100.00;59669.53;4957019;28;20130;-71
2022/09/16 07:23:40;;;;;;;3.28;1.50;;;;;;;-142.37;100.00;59669.53;4956614;28;20031;-70
2022/09/16 07:26:15;;;;;;;3.92;1.27;;;;;;;-142.37;100.00;59669.53;4956796;28;20035;-70
2022/09/16 07:28:42;;;;;;;1.17;1.00;;;;;;;-142.37;100.00;59669.53;4974845;28;20079;-70
2022/09/16 07:31:11;;;;;;;1.52;0.90;;;;;;;-142.37;100.00;59669.53;4956980;28;20039;-71
2022/09/16 07:33:39;;;;;;;3.10;1.08;;;;;;;-142.37;100.00;59669.53;4974352;28;20046;-69
2022/09/16 07:36:06;;;;;;;0.98;0.85;;;;;;;-142.37;100.00;59669.53;4974431;28;20042;-71
2022/09/16 07:38:32;;;;;;;2.30;0.88;;;;;;;-142.37;100.00;59669.53;4956968;28;20038;-70
2022/09/16 07:41:13;;;;;;;2.13;1.25;;;;;;;-142.37;100.00;59669.53;4957248;28;20041;-70
2022/09/16 07:43:40;;;;;;;2.92;1.00;;;;;;;-142.37;100.00;59669.53;4974428;28;20035;-70
2022/09/16 07:46:09;;;;;;;2.85;1.52;;;;;;;-142.37;100.00;59669.53;4974409;28;20030;-70
2022/09/16 07:48:35;;;;;;;1.95;0.90;;;;;;;-142.37;100.00;59669.53;4956973;28;20058;-71
2022/09/16 07:51:08;;;;;;;3.03;1.20;;;;;;;-142.37;100.00;59669.53;4956831;28;20030;-69
2022/09/16 07:53:34;;;;;;;1.10;0.85;;;;;;;-142.37;100.00;59669.53;4956824;28;20073;-72
2022/09/16 07:56:05;;;;;;;0.85;0.73;;;;;;;-142.37;100.00;59669.53;4974412;28;20035;-69
2022/09/16 07:58:31;;;;;;;1.67;0.80;;;;;;;-142.37;100.00;59669.53;4956997;28;20106;-71
2022/09/16 08:00:57;;;;;;;2.35;0.93;;;;;;;-142.37;100.00;59669.53;4956668;28;20066;-71
2022/09/16 08:03:23;;;;;;;1.08;0.75;;;;;;;-142.37;100.00;59669.53;4956878;28;20035;-69
2022/09/16 08:05:48;;;;;;;1.42;0.75;;;;;;;-142.37;100.00;59669.53;4974649;28;20375;-72
2022/09/16 08:08:14;;;;;;;1.88;0.65;;;;;;;-142.37;100.00;59669.53;4974190;28;20023;-69
2022/09/16 08:10:40;;;;;;;1.10;0.70;;;;;;;-142.37;100.00;59669.53;4974200;28;20031;-69
2022/09/16 08:13:07;;;;;;;3.58;0.90;;;;;;;-142.37;100.00;59669.53;4956733;28;20345;-70
2022/09/16 08:15:33;;;;;;;0.98;0.45;;;;;;;-142.37;100.00;59669.53;4973993;28;20034;-71
2022/09/16 08:17:59;;;;;;;1.05;0.60;;;;;;;-142.37;100.00;59669.53;4973630;28;20082;-71
2022/09/16 08:20:25;;;;;;;0.90;0.47;;;;;;;-142.37;100.00;59669.53;4956220;28;20042;-71
2022/09/16 08:22:52;;;;;;;1.70;0.80;;;;;;;-142.37;100.00;59669.53;4973359;28;20030;-70
2022/09/16 08:25:17;;;;;;;2.22;0.85;;;;;;;-142.37;100.00;59669.53;4973446;28;20039;-71
2022/09/16 08:27:43;;;;;;;1.00;0.80;;;;;;;-142.37;100.00;59669.53;4973705;28;20031;-72
2022/09/16 08:30:09;;;;;;;1.70;0.75;;;;;;;-142.37;100.00;59669.53;4955962;28;20035;-71
2022/09/16 08:32:35;;;;;;;0.60;0.50;;;;;;;-142.37;100.00;59669.53;4973647;28;20464;-71
2022/09/16 08:35:01;;;;;;;5.78;0.70;;;;;;;-142.37;100.00;59669.53;4972951;28;20061;-70
2022/09/16 08:37:27;;;;;;;2.08;0.80;;;;;;;-142.37;100.00;59669.53;4973457;28;20037;-69
2022/09/16 08:39:53;;;;;;;1.65;0.70;;;;;;;-142.37;100.00;59669.53;4955547;28;20035;-70
2022/09/16 08:42:55;;;;;;;1.02;0.80;;;;;;;-142.37;100.00;59669.53;4973471;28;20066;-69
2022/09/16 08:45:32;;;;;;;1.55;0.73;;;;;;;-142.37;100.00;59669.53;4972877;28;20054;-69
2022/09/16 08:48:23;;;;;;;2.45;1.02;;;;;;;-142.37;100.00;59669.53;4973104;28;20026;-73
2022/09/16 08:50:50;;;;;;;1.05;0.80;;;;;;;-142.37;100.00;59669.53;4974056;28;20034;-70
2022/09/16 08:53:26;;;;;;;1.75;1.00;;;;;;;-142.37;100.00;59669.53;4972566;28;20499;-71
2022/09/16 08:55:52;;;;;;;1.20;0.70;;;;;;;-142.37;100.00;59669.53;4955676;28;20475;-71
2022/09/16 08:58:25;;;;;;;1.15;0.70;;;;;;;-142.37;100.00;59669.53;4955469;28;20083;-72
2022/09/16 09:01:03;;;;;;;1.75;0.93;;;;;;;-142.37;100.00;59669.53;4955228;28;20031;-71
2022/09/16 09:03:44;;;;;;;1.75;0.70;;;;;;;-142.37;100.00;59669.53;4973188;28;20033;-72
2022/09/16 09:06:36;;;;;;;4.53;0.80;;;;;;;-142.37;100.00;59669.53;4973518;28;20102;-69
2022/09/16 09:09:11;;;;;;;3.90;0.57;;;;;;;-142.37;100.00;59669.53;4950348;28;20495;-71
2022/09/16 09:11:49;;;;;;;2.38;0.93;;;;;;;-142.37;100.00;59669.53;4972391;28;20026;-72
2022/09/16 09:14:15;;;;;;;0.85;0.70;;;;;;;-142.37;100.00;59669.53;4972573;28;20079;-71
2022/09/16 09:16:57;;;;;;;2.03;1.23;;;;;;;-142.37;100.00;59669.53;4972704;28;20133;-71
2022/09/16 09:19:42;;;;;;;1.90;1.00;;;;;;;-142.37;100.00;59669.53;4955112;28;20400;-70
2022/09/16 09:22:29;;;;;;;2.03;1.23;;;;;;;-142.37;100.00;59669.53;4971186;28;20043;-71
2022/09/16 09:25:03;;;;;;;4.07;0.80;;;;;;;-142.37;100.00;59669.53;4970427;28;20560;-71
2022/09/16 09:27:46;;;;;;;1.55;0.88;;;;;;;-142.37;100.00;59669.53;4971197;28;20051;-72
2022/09/16 09:30:19;;;;;;;3.40;0.70;;;;;;;-142.37;100.00;59669.53;4972319;28;20070;-72
2022/09/16 09:33:19;;;;;;;1.45;0.70;;;;;;;-142.37;100.00;59669.53;4971634;28;20069;-72
2022/09/16 09:36:03;;;;;;;3.13;1.30;;;;;;;-142.37;100.00;59669.53;4954380;28;20066;-72
2022/09/16 09:38:50;;;;;;;1.75;0.73;;;;;;;-142.37;100.00;59669.53;4972219;28;20504;-73
2022/09/16 09:41:30;;;;;;;1.98;0.95;;;;;;;-142.37;100.00;59669.53;4954233;28;20114;-72
2022/09/16 09:44:14;;;;;;;4.22;1.20;;;;;;;-142.37;100.00;59669.53;4971597;28;20138;-71
2022/09/16 09:46:46;;;;;;;1.48;0.80;;;;;;;-142.37;100.00;59669.53;4970562;28;20030;-71
2022/09/16 09:49:36;;;;;;;2.13;0.90;;;;;;;-142.37;100.00;59669.53;4953949;28;20039;-73
2022/09/16 09:53:01;;;;;;;1.45;0.80;;;;;;;-142.37;100.00;59669.53;4971970;28;20049;-71
2022/09/16 09:55:32;;;;;;;1.38;0.88;;;;;;;-142.37;100.00;59669.53;4912531;29;20104;-73
2022/09/16 09:58:04;;;;;;;1.02;0.95;;;;;;;-142.37;100.00;59669.53;4970072;28;20079;-71
2022/09/16 10:00:29;;;;;;;0.77;0.60;;;;;;;-142.37;100.00;59669.53;4972067;28;20379;-73
2022/09/16 10:03:04;;;;;;;1.27;0.95;;;;;;;-142.37;100.00;59669.53;4972373;28;20027;-72
2022/09/16 10:05:30;;;;;;;;;;;;;;;-142.37;100.00;59669.53;4972692;28;20037;-71
2022/09/16 10:08:04;;;;;;;2.38;1.10;;;;;;;-142.37;100.00;59669.53;4972387;28;20371;-72
2022/09/16 10:10:33;;;;;;;1.25;0.90;;;;;;;-142.37;100.00;59669.53;4955293;28;20058;-73
2022/09/16 10:13:08;;;;;;;1.60;1.50;;;;;;;-142.37;100.00;59669.53;4972445;28;20035;-71
2022/09/16 10:15:33;;;;;;;3.97;2.47;;;;;;;-142.37;100.00;59669.53;4971772;28;20389;-71
2022/09/16 10:18:02;;;;;;;4.13;1.33;;;;;;;-142.37;100.00;59669.53;4970372;28;20039;-73
2022/09/16 10:20:31;;;;;;;0.75;0.70;;;;;;;-142.37;100.00;59669.53;4954222;28;20038;-72
2022/09/16 10:23:04;;;;;;;2.63;1.38;;;;;;;-142.37;100.00;59669.53;4971437;28;20050;-71
2022/09/16 10:25:32;;;;;;;5.05;2.92;;;;;;;-142.37;100.00;59669.53;4971937;28;20039;-70
2022/09/16 10:28:00;;;;;;;1.40;0.80;;;;;;;-142.37;100.00;59669.53;4971630;28;20035;-69
2022/09/16 10:30:44;;;;;;;1.58;0.93;;;;;;;-142.37;100.00;59669.53;4971983;28;20035;-72
2022/09/16 10:33:29;;;;;;;3.03;1.23;;;;;;;-142.37;100.00;59669.53;4971666;28;20120;-72
2022/09/16 10:36:05;;;;;;;1.85;0.88;;;;;;;-142.37;100.00;59669.53;4971025;28;20106;-69
2022/09/16 10:38:40;;;;;;;1.17;0.52;;;;;;;-142.37;100.00;59669.53;4971879;28;20035;-70
2022/09/16 10:41:13;;;;;;;;;;;;;;;-142.37;100.00;59669.53;4954469;28;20027;-70
2022/09/16 10:43:48;;;;;;;1.15;0.98;;;;;;;-142.37;100.00;59669.53;4972051;28;19914;-70
2022/09/16 10:46:16;;;;;;;1.27;0.70;;;;;;;-142.37;100.00;59669.53;4973649;28;20392;-71
2022/09/16 10:48:42;;;;;;;0.57;0.55;;;;;;;-142.37;100.00;59669.53;4975539;28;20038;-72
2022/09/16 10:51:25;;;;;;;1.73;0.57;;;;;;;-142.37;100.00;59669.53;4974518;28;20106;-70
2022/09/16 10:53:54;;;;;;;0.85;0.50;;;;;;;-142.37;100.00;59669.53;4973563;28;20034;-70
2022/09/16 10:56:28;;;;;;;1.88;0.82;;;;;;;-142.37;100.00;59669.53;4957738;28;20034;-72
2022/09/16 10:59:10;;;;;;;3.43;2.07;;;;;;;-142.37;100.00;59669.53;4974903;28;20049;-71
2022/09/16 11:02:06;;;;;;;1.17;0.63;;;;;;;-142.37;100.00;59669.53;4957381;28;20022;-69
2022/09/16 11:04:53;;;;;;;0.52;0.43;;;;;;;-142.37;100.00;59669.53;4957054;28;20528;-71
2022/09/16 11:07:28;;;;;;;1.65;0.60;;;;;;;-142.37;100.00;59669.53;4956851;28;20045;-71
2022/09/16 11:09:58;;;;;;;;;;;;;;;-142.37;100.00;59669.53;4975314;28;20026;-70
2022/09/16 11:12:32;;;;;;;0.60;0.60;;;;;;;-142.37;100.00;59669.53;4975133;28;19914;-70
2022/09/16 11:15:16;;;;;;;;;;;;;;;-142.37;100.00;59669.53;4973911;28;20035;-69
2022/09/16 11:17:45;;;;;;;0.40;0.40;;;;;;;-142.37;100.00;59669.53;4957755;28;19985;-70
2022/09/16 11:20:29;;;;;;;1.75;0.32;;;;;;;-142.37;100.00;59669.53;4973629;28;20551;-72
2022/09/16 11:23:13;;;;;;;0.93;0.38;;;;;;;-142.37;100.00;59669.53;4973356;28;20031;-71
2022/09/16 11:25:53;;;;;;;0.77;0.30;;;;;;;-142.37;100.00;59669.53;4975048;28;20030;-70
2022/09/16 11:28:31;;;;;;;2.30;1.17;;;;;;;-142.37;100.00;59669.53;4973483;28;20038;-69
2022/09/16 11:31:15;;;;;;;2.38;1.00;;;;;;;-142.37;100.00;59669.53;4972815;28;20189;-68